Time;durP1;ratioP1;P1;durP2;ratioP2;P2;SDS_P1;SDS_P2;PMS_P1;PMS_P2;Temp;Humidity;BMP_temperature;BMP_pressure;BME280_temperature;BME280_humidity;BME280_pressure;Samples;Min_cycle;Max_cycle;Signal;HPM_P1;HPM_P2
2023/06/07 00:00:24;;;;;;;3.65;2.72;;;;;;;21.96;45.37;102268.69;5005719;28;20345;-87
2023/06/07 00:03:11;;;;;;;4.80;3.05;;;;;;;21.79;45.57;102251.06;4994212;28;20034;-89
2023/06/07 00:06:00;;;;;;;4.35;2.78;;;;;;;21.94;45.76;102273.34;5010180;28;20044;-86
2023/06/07 00:08:56;;;;;;;4.35;2.70;;;;;;;21.87;45.52;102264.34;4997189;28;20064;-89
2023/06/07 00:11:25;;;;;;;3.42;2.60;;;;;;;21.80;45.48;102247.41;5012416;28;20097;-88
2023/06/07 00:14:33;;;;;;;5.25;2.83;;;;;;;21.78;45.60;102248.56;4997572;28;20034;-88
2023/06/07 00:17:15;;;;;;;4.60;2.67;;;;;;;21.71;45.70;102243.03;4992597;28;20097;-88
2023/06/07 00:19:41;;;;;;;3.20;2.67;;;;;;;21.90;45.56;102277.31;4974105;28;20042;-88
2023/06/07 00:22:47;;;;;;;3.58;2.63;;;;;;;21.89;45.86;102278.25;5022749;28;20046;-88
2023/06/07 00:25:20;;;;;;;3.60;2.55;;;;;;;21.81;45.74;102275.59;5009825;28;20061;-89
2023/06/07 00:27:54;;;;;;;4.25;2.60;;;;;;;21.74;45.60;102256.00;4976172;28;20049;-87
2023/06/07 00:30:40;;;;;;;5.07;3.10;;;;;;;21.76;45.81;102263.81;5010568;28;20080;-87
2023/06/07 00:33:45;;;;;;;5.32;3.40;;;;;;;21.87;45.63;102277.59;5011055;28;20061;-88
2023/06/07 00:36:38;;;;;;;3.55;2.65;;;;;;;21.79;45.56;102264.31;5013555;28;20034;-90
2023/06/07 00:39:12;;;;;;;5.32;3.05;;;;;;;21.68;45.74;102241.53;5015358;28;20042;-87
2023/06/07 00:42:17;;;;;;;5.22;2.67;;;;;;;21.72;45.87;102247.34;5000505;28;20048;-88
2023/06/07 00:45:04;;;;;;;4.07;2.63;;;;;;;21.79;45.56;102263.47;5037194;28;20038;-88
2023/06/07 00:47:55;;;;;;;3.22;2.45;;;;;;;21.83;45.78;102262.16;4988012;28;20081;-88
2023/06/07 00:51:02;;;;;;;3.97;2.70;;;;;;;21.81;45.78;102257.03;5003279;28;20105;-89
2023/06/07 00:53:51;;;;;;;4.72;2.92;;;;;;;21.80;45.86;102257.19;5030179;28;20037;-88
2023/06/07 00:56:24;;;;;;;3.97;2.75;;;;;;;21.60;45.85;102220.31;5016229;28;20057;-87
2023/06/07 00:59:10;;;;;;;4.10;2.80;;;;;;;21.60;45.52;102228.25;4987527;28;20038;-89
2023/06/07 01:01:57;;;;;;;5.40;2.78;;;;;;;21.65;45.91;102236.56;5001913;28;20044;-89
2023/06/07 01:04:49;;;;;;;3.67;2.60;;;;;;;21.79;45.58;102252.88;5020393;28;20097;-90
2023/06/07 01:07:55;;;;;;;5.38;2.92;;;;;;;21.77;45.88;102258.34;5015304;28;20104;-90
2023/06/07 01:11:03;;;;;;;3.72;2.42;;;;;;;21.66;45.79;102240.88;5023115;28;20045;-89
2023/06/07 01:13:34;;;;;;;4.57;3.10;;;;;;;21.75;45.67;102255.00;4994038;28;20037;-85
2023/06/07 01:16:01;;;;;;;3.22;2.35;;;;;;;21.76;45.64;102256.69;4990469;28;20038;-85
2023/06/07 01:18:53;;;;;;;5.15;2.97;;;;;;;21.79;45.89;102260.81;5013399;28;20045;-84
2023/06/07 01:21:25;;;;;;;6.30;3.40;;;;;;;21.57;45.71;102233.88;4994952;28;20035;-85
2023/06/07 01:23:56;;;;;;;4.13;2.53;;;;;;;21.37;45.79;102213.88;4983246;28;20106;-86
2023/06/07 01:26:26;;;;;;;3.92;2.45;;;;;;;21.47;45.49;102229.66;4967429;28;20038;-85
2023/06/07 01:29:24;;;;;;;5.60;2.80;;;;;;;21.70;45.72;102263.41;4954583;28;20076;-85
2023/06/07 01:31:52;;;;;;;4.35;3.38;;;;;;;21.76;45.44;102269.94;4983598;28;20034;-84
2023/06/07 01:34:25;;;;;;;4.47;2.72;;;;;;;21.76;45.59;102269.09;4994199;28;20049;-83
2023/06/07 01:36:55;;;;;;;4.25;2.80;;;;;;;21.69;45.57;102261.75;4975856;28;20061;-86
2023/06/07 01:39:42;;;;;;;2.72;2.28;;;;;;;21.65;45.81;102254.28;4989371;28;20038;-85
2023/06/07 01:42:10;;;;;;;5.05;2.65;;;;;;;21.60;46.03;102251.28;5011449;28;21581;-86
2023/06/07 01:44:40;;;;;;;4.07;2.72;;;;;;;21.44;46.08;102236.13;4985831;28;20053;-86
2023/06/07 01:47:08;;;;;;;4.22;2.95;;;;;;;21.63;45.99;102261.56;4985948;28;20038;-84
2023/06/07 01:49:54;;;;;;;3.80;2.35;;;;;;;21.66;45.72;102267.38;4994875;28;20010;-86
2023/06/07 01:52:21;;;;;;;3.53;2.85;;;;;;;21.51;45.93;102238.94;4983338;28;20042;-84
2023/06/07 01:54:48;;;;;;;6.30;2.70;;;;;;;21.51;45.82;102239.78;4982943;28;20041;-85
2023/06/07 01:57:27;;;;;;;5.32;2.60;;;;;;;21.67;45.73;102261.09;4961116;28;20048;-84
2023/06/07 02:00:06;;;;;;;3.07;2.43;;;;;;;21.50;45.70;102240.78;4981571;28;20054;-88
2023/06/07 02:02:59;;;;;;;3.80;2.80;;;;;;;21.67;45.94;102269.03;5019947;28;20034;-86
2023/06/07 02:05:32;;;;;;;2.70;2.22;;;;;;;21.63;45.81;102259.75;4990917;28;20187;-87
2023/06/07 02:08:22;;;;;;;3.30;2.30;;;;;;;21.51;45.84;102231.00;4988907;28;20134;-87
2023/06/07 02:11:32;;;;;;;5.68;2.80;;;;;;;21.68;45.59;102253.97;5006325;28;20033;-89
2023/06/07 02:14:25;;;;;;;3.95;2.38;;;;;;;21.66;45.72;102262.06;5003774;28;20108;-89
2023/06/07 02:17:08;;;;;;;4.63;2.90;;;;;;;21.63;46.03;102250.97;5003243;28;20046;-89
2023/06/07 02:20:17;;;;;;;3.38;2.45;;;;;;;21.66;45.64;102258.59;4992708;28;20041;-89
2023/06/07 02:22:59;;;;;;;4.00;2.63;;;;;;;21.54;45.61;102239.47;5004274;28;20046;-89
2023/06/07 02:26:05;;;;;;;4.63;2.63;;;;;;;21.64;45.69;102255.28;5020074;28;20068;-88
2023/06/07 02:28:40;;;;;;;3.70;2.60;;;;;;;21.58;45.77;102248.78;5002651;28;20041;-87
2023/06/07 02:31:24;;;;;;;4.30;2.50;;;;;;;21.56;45.97;102242.81;4976010;28;20038;-86
2023/06/07 02:34:12;;;;;;;4.30;3.08;;;;;;;21.57;45.88;102251.59;4975707;28;20118;-87
2023/06/07 02:36:58;;;;;;;3.58;2.30;;;;;;;21.62;45.91;102255.44;4999070;28;20130;-86
2023/06/07 02:39:44;;;;;;;4.63;2.33;;;;;;;21.61;45.66;102252.94;4981715;28;20133;-87
2023/06/07 02:42:11;;;;;;;5.28;2.30;;;;;;;21.59;45.86;102258.41;5009609;28;20097;-87
2023/06/07 02:45:03;;;;;;;3.58;2.50;;;;;;;21.59;45.79;102247.81;4978841;28;20042;-86
2023/06/07 02:47:30;;;;;;;4.43;2.40;;;;;;;21.60;45.96;102252.13;4978451;28;20034;-88
2023/06/07 02:50:36;;;;;;;4.07;2.38;;;;;;;21.50;45.77;102229.34;4994378;28;20029;-91
2023/06/07 02:53:26;;;;;;;2.83;2.33;;;;;;;21.53;45.92;102244.94;5023499;28;20026;-91
2023/06/07 02:56:32;;;;;;;4.53;2.20;;;;;;;21.52;45.61;102236.16;5005983;28;20034;-89
2023/06/07 02:59:42;;;;;;;3.10;2.20;;;;;;;21.50;45.85;102240.78;5023232;28;20029;-88
2023/06/07 03:02:13;;;;;;;4.57;2.60;;;;;;;21.60;45.80;102248.63;5007941;28;20072;-87
2023/06/07 03:04:52;;;;;;;3.97;2.53;;;;;;;21.55;45.69;102245.63;4988938;28;20077;-88
2023/06/07 03:07:22;;;;;;;3.58;2.38;;;;;;;21.48;45.65;102233.97;4995666;28;20026;-87
2023/06/07 03:10:08;;;;;;;3.90;2.45;;;;;;;21.45;45.55;102221.88;4971686;28;20085;-88
2023/06/07 03:13:10;;;;;;;3.78;2.40;;;;;;;21.44;45.68;102222.03;4998941;28;20042;-85
2023/06/07 03:16:02;;;;;;;4.20;2.58;;;;;;;21.42;45.55;102217.72;4995124;28;20030;-87
2023/06/07 03:18:55;;;;;;;4.75;2.40;;;;;;;21.42;45.87;102216.88;5004853;28;20120;-87
2023/06/07 03:21:58;;;;;;;4.75;2.60;;;;;;;21.62;45.79;102251.94;5009607;28;20118;-89
2023/06/07 03:25:04;;;;;;;4.53;2.60;;;;;;;21.55;45.88;102237.69;5003692;28;20443;-88
2023/06/07 03:27:52;;;;;;;3.50;2.30;;;;;;;21.61;45.78;102256.44;5020221;28;20036;-88
2023/06/07 03:30:29;;;;;;;3.67;2.10;;;;;;;21.59;45.62;102252.28;4999997;28;20109;-89
2023/06/07 03:33:51;;;;;;;3.60;2.78;;;;;;;21.57;45.68;102257.72;5038914;28;20054;-89
2023/06/07 03:36:40;;;;;;;4.15;2.55;;;;;;;21.56;45.53;102249.94;5010522;28;20038;-88
2023/06/07 03:39:51;;;;;;;3.55;2.50;;;;;;;21.60;45.80;102249.47;5010811;28;20038;-89
2023/06/07 03:42:25;;;;;;;4.43;2.30;;;;;;;21.55;45.58;102251.75;4981882;28;20030;-86
2023/06/07 03:45:10;;;;;;;4.93;2.20;;;;;;;21.58;45.79;102251.44;5012254;28;20034;-90
2023/06/07 03:47:57;;;;;;;3.92;2.53;;;;;;;21.56;45.78;102250.78;4995773;28;20039;-89
2023/06/07 03:51:03;;;;;;;4.78;2.33;;;;;;;21.50;45.70;102242.59;5014172;28;20249;-88
2023/06/07 03:53:42;;;;;;;3.75;2.47;;;;;;;21.56;45.62;102247.28;5027221;28;20094;-88
2023/06/07 03:56:26;;;;;;;3.58;2.40;;;;;;;21.56;45.68;102245.47;4962937;28;20033;-88
2023/06/07 03:59:15;;;;;;;3.25;2.38;;;;;;;21.51;45.36;102244.25;4998597;28;20030;-87
2023/06/07 04:02:06;;;;;;;4.60;2.53;;;;;;;21.56;45.79;102258.72;5009775;28;20036;-89
2023/06/07 04:05:17;;;;;;;5.00;2.38;;;;;;;21.47;45.82;102233.13;5012552;28;20053;-89
2023/06/07 04:08:31;;;;;;;4.15;2.40;;;;;;;21.49;45.72;102236.47;5013958;28;20053;-88
2023/06/07 04:11:21;;;;;;;3.42;2.28;;;;;;;21.61;45.48;102255.59;5024566;28;20098;-88
2023/06/07 04:14:27;;;;;;;3.63;2.10;;;;;;;21.61;45.56;102255.59;4994319;28;20056;-87
2023/06/07 04:17:33;;;;;;;3.35;2.20;;;;;;;21.51;45.63;102234.47;5013523;28;20057;-89
2023/06/07 04:20:00;;;;;;;4.05;2.40;;;;;;;21.37;45.53;102211.25;5038132;28;20030;-87
2023/06/07 04:23:06;;;;;;;2.97;2.10;;;;;;;21.53;45.40;102229.03;4992704;28;20078;-89
2023/06/07 04:25:55;;;;;;;6.85;2.72;;;;;;;21.48;45.47;102216.25;5009727;28;20317;-89
2023/06/07 04:28:40;;;;;;;4.18;2.20;;;;;;;21.55;45.41;102235.84;5008983;28;20042;-85
2023/06/07 04:31:08;;;;;;;5.97;2.65;;;;;;;21.61;45.39;102237.03;4978513;28;20114;-87
2023/06/07 04:33:45;;;;;;;3.78;2.05;;;;;;;21.21;45.22;102171.38;5001997;28;20038;-84
2023/06/07 04:36:21;;;;;;;4.47;2.00;;;;;;;21.63;45.51;102245.66;4990673;28;20037;-86
2023/06/07 04:39:09;;;;;;;4.20;2.17;;;;;;;21.47;45.50;102219.88;5024213;28;20034;-86
2023/06/07 04:41:38;;;;;;;3.60;2.47;;;;;;;21.59;45.44;102245.16;4981582;28;20037;-86
2023/06/07 04:44:11;;;;;;;3.33;2.40;;;;;;;21.63;45.63;102238.53;5007503;28;20049;-85
2023/06/07 04:46:45;;;;;;;3.78;2.25;;;;;;;21.62;45.20;102242.19;4994546;28;20345;-86
2023/06/07 04:49:35;;;;;;;2.58;2.17;;;;;;;21.47;45.61;102211.94;4976327;28;20034;-85
2023/06/07 04:52:05;;;;;;;3.85;2.38;;;;;;;21.61;45.39;102235.22;4978046;28;20054;-85
2023/06/07 04:54:59;;;;;;;3.50;2.40;;;;;;;21.30;45.31;102189.81;5001952;28;20138;-86
2023/06/07 04:57:54;;;;;;;3.58;2.35;;;;;;;21.64;45.73;102236.72;5002035;28;20078;-91
2023/06/07 05:01:00;;;;;;;3.42;2.03;;;;;;;21.62;45.30;102234.22;4999149;28;20034;-92
2023/06/07 05:03:50;;;;;;;3.10;2.25;;;;;;;21.51;45.44;102217.75;5001758;28;20068;-87
2023/06/07 05:06:38;;;;;;;4.10;2.00;;;;;;;21.65;45.54;102239.22;4998009;28;20034;-89
2023/06/07 05:09:30;;;;;;;3.08;2.42;;;;;;;21.65;45.19;102236.56;5023887;28;20056;-86
2023/06/07 05:12:43;;;;;;;2.97;2.10;;;;;;;21.63;45.46;102240.38;5006523;28;20033;-89
2023/06/07 05:15:50;;;;;;;3.72;2.13;;;;;;;21.50;45.29;102216.91;5002332;28;20566;-88
2023/06/07 05:18:57;;;;;;;3.97;2.13;;;;;;;21.21;45.35;102176.66;4990941;28;20064;-90
2023/06/07 05:21:45;;;;;;;5.57;2.60;;;;;;;21.57;45.29;102236.53;4996122;28;20030;-90
2023/06/07 05:24:27;;;;;;;3.50;2.30;;;;;;;21.60;45.24;102235.38;5015872;28;20041;-89
2023/06/07 05:26:54;;;;;;;3.45;2.08;;;;;;;21.44;45.33;102217.56;5004813;28;20030;-90
2023/06/07 05:30:04;;;;;;;2.53;2.03;;;;;;;21.60;45.25;102238.84;5010388;28;20060;-88
2023/06/07 05:32:41;;;;;;;3.85;2.25;;;;;;;21.62;45.34;102249.31;5017583;28;20444;-90
2023/06/07 05:35:09;;;;;;;4.38;2.33;;;;;;;21.61;45.47;102250.28;5008091;28;20041;-90
2023/06/07 05:38:22;;;;;;;2.78;1.90;;;;;;;21.58;45.50;102246.16;5000973;28;20097;-88
2023/06/07 05:40:54;;;;;;;3.35;2.22;;;;;;;21.46;45.55;102228.84;5023561;28;20030;-91
2023/06/07 05:44:00;;;;;;;3.63;2.10;;;;;;;21.67;45.29;102254.97;5000296;28;20042;-89
2023/06/07 05:47:00;;;;;;;4.20;2.40;;;;;;;21.60;45.33;102245.97;5027572;28;20117;-90
2023/06/07 05:50:06;;;;;;;4.70;2.33;;;;;;;21.67;45.37;102261.09;5004211;28;20049;-90
2023/06/07 05:53:12;;;;;;;5.65;2.60;;;;;;;21.67;45.49;102257.59;5026913;28;20026;-90
2023/06/07 05:55:54;;;;;;;4.28;2.03;;;;;;;21.61;45.27;102248.47;5011098;28;20415;-89
2023/06/07 05:58:23;;;;;;;3.58;2.67;;;;;;;21.68;45.20;102262.75;5014141;28;20036;-91
2023/06/07 06:01:19;;;;;;;3.42;2.38;;;;;;;21.47;45.44;102227.84;4994104;28;20041;-90
2023/06/07 06:04:28;;;;;;;4.47;2.17;;;;;;;21.61;45.41;102253.78;5012609;28;20040;-89
2023/06/07 06:07:15;;;;;;;3.50;2.08;;;;;;;21.53;44.99;102239.63;5011948;28;20105;-90
2023/06/07 06:10:21;;;;;;;4.57;2.30;;;;;;;21.64;45.43;102263.22;5011769;28;20045;-90
2023/06/07 06:13:08;;;;;;;3.72;2.30;;;;;;;21.58;45.53;102248.78;5009982;28;20041;-89
2023/06/07 06:15:41;;;;;;;2.97;2.10;;;;;;;21.73;45.29;102280.03;5028543;28;20124;-89
2023/06/07 06:18:28;;;;;;;5.10;2.38;;;;;;;21.66;45.36;102266.56;5006873;28;20042;-87
2023/06/07 06:21:17;;;;;;;3.90;2.20;;;;;;;21.56;45.35;102249.94;5005361;28;20371;-89
2023/06/07 06:24:14;;;;;;;3.70;2.03;;;;;;;21.77;45.28;102284.03;4997349;28;20038;-86
2023/06/07 06:27:20;;;;;;;3.10;2.33;;;;;;;21.58;44.92;102253.25;4993120;28;20038;-88
2023/06/07 06:30:08;;;;;;;2.83;2.10;;;;;;;21.73;45.18;102280.03;5006066;28;20048;-87
2023/06/07 06:33:15;;;;;;;3.33;2.30;;;;;;;21.79;45.26;102284.69;4992184;28;20033;-88
2023/06/07 06:35:42;;;;;;;3.97;2.20;;;;;;;21.78;44.89;102293.63;5002754;28;20026;-84
2023/06/07 06:38:09;;;;;;;4.15;2.33;;;;;;;21.76;44.92;102291.16;4973265;28;20038;-84
2023/06/07 06:40:55;;;;;;;4.68;2.40;;;;;;;21.87;44.95;102295.31;4972332;28;20113;-86
2023/06/07 06:43:21;;;;;;;2.58;2.10;;;;;;;21.72;44.90;102281.81;4990306;28;20061;-87
2023/06/07 06:46:16;;;;;;;4.30;2.53;;;;;;;21.70;44.81;102283.78;4973769;28;20110;-88
2023/06/07 06:49:03;;;;;;;3.90;2.50;;;;;;;21.88;45.11;102311.09;5003596;28;20237;-90
2023/06/07 06:51:57;;;;;;;2.78;2.10;;;;;;;21.93;44.60;102310.63;5011219;28;20033;-89
2023/06/07 06:54:50;;;;;;;3.22;2.03;;;;;;;21.94;44.83;102309.63;5012718;28;20038;-90
2023/06/07 06:57:36;;;;;;;4.47;2.65;;;;;;;21.93;44.95;102314.13;4991167;28;20045;-89
2023/06/07 07:00:06;;;;;;;3.40;2.28;;;;;;;21.92;44.91;102312.44;5006540;28;20041;-89
2023/06/07 07:02:52;;;;;;;3.95;2.40;;;;;;;21.87;44.64;102301.47;4987610;28;20057;-87
2023/06/07 07:05:57;;;;;;;4.13;2.00;;;;;;;21.90;44.69;102309.13;5015863;28;20042;-88
2023/06/07 07:08:25;;;;;;;4.07;2.30;;;;;;;21.96;44.84;102313.78;4997400;28;20053;-83
2023/06/07 07:11:11;;;;;;;5.82;2.30;;;;;;;22.04;44.81;102310.34;4981220;28;21075;-84
2023/06/07 07:14:00;;;;;;;3.72;2.50;;;;;;;22.10;44.47;102311.56;5005901;28;20034;-87
2023/06/07 07:17:08;;;;;;;4.93;2.38;;;;;;;22.18;44.15;102319.56;4994553;28;20021;-88
2023/06/07 07:19:55;;;;;;;4.82;3.00;;;;;;;22.20;44.53;102320.22;5024311;28;20041;-88
2023/06/07 07:22:29;;;;;;;5.65;2.65;;;;;;;22.24;44.33;102313.59;5006399;28;20067;-86
2023/06/07 07:24:58;;;;;;;4.40;2.60;;;;;;;22.26;44.27;102315.13;4978033;28;20038;-87
2023/06/07 07:27:26;;;;;;;6.78;2.17;;;;;;;22.28;44.35;102313.16;4968507;28;20049;-86
2023/06/07 07:30:00;;;;;;;6.05;2.45;;;;;;;22.14;44.00;102289.88;5002514;28;20030;-86
2023/06/07 07:32:28;;;;;;;3.38;2.17;;;;;;;22.27;44.03;102319.44;4969511;28;20018;-87
2023/06/07 07:34:53;;;;;;;4.10;2.60;;;;;;;22.29;44.16;102325.41;4961985;28;20077;-86
2023/06/07 07:37:21;;;;;;;3.70;2.40;;;;;;;22.33;44.03;102325.94;4990801;28;20030;-86
2023/06/07 07:40:15;;;;;;;7.00;2.60;;;;;;;22.31;44.25;102322.59;4987374;28;20038;-85
2023/06/07 07:42:51;;;;;;;4.05;2.65;;;;;;;22.31;44.34;102319.94;5009874;28;20101;-88
2023/06/07 07:45:22;;;;;;;3.60;2.67;;;;;;;22.28;43.94;102299.03;4993740;28;20044;-86
2023/06/07 07:47:56;;;;;;;7.25;2.67;;;;;;;22.20;43.89;102281.25;4984261;28;20037;-84
2023/06/07 07:50:40;;;;;;;4.68;2.65;;;;;;;22.45;43.70;102313.22;4975088;28;20060;-86
2023/06/07 07:53:13;;;;;;;6.53;2.50;;;;;;;22.44;43.94;102299.09;4996666;28;20038;-87
2023/06/07 07:55:46;;;;;;;4.60;2.42;;;;;;;22.38;44.02;102285.63;5004048;28;20038;-85
2023/06/07 07:58:16;;;;;;;7.18;2.53;;;;;;;22.54;43.88;102313.06;4995929;28;20038;-84
2023/06/07 08:00:42;;;;;;;4.85;2.90;;;;;;;22.55;44.11;102322.69;4997618;28;20042;-84
2023/06/07 08:03:08;;;;;;;6.50;2.83;;;;;;;22.59;44.10;102312.56;5000562;28;20031;-83
2023/06/07 08:05:34;;;;;;;5.63;2.30;;;;;;;22.50;44.29;102298.44;4980221;28;20058;-83
2023/06/07 08:08:00;;;;;;;9.85;3.03;;;;;;;22.44;43.67;102287.63;5006030;28;20062;-86
2023/06/07 08:10:26;;;;;;;5.50;2.47;;;;;;;22.36;44.13;102269.03;4991079;28;20049;-85
2023/06/07 08:12:55;;;;;;;3.97;2.67;;;;;;;22.65;44.25;102311.94;4995554;28;20050;-82
2023/06/07 08:15:31;;;;;;;4.55;2.65;;;;;;;22.67;43.96;102315.25;4973789;28;20321;-84
2023/06/07 08:17:58;;;;;;;8.05;2.85;;;;;;;22.66;44.18;102307.44;4975389;28;20471;-85
2023/06/07 08:20:24;;;;;;;7.35;3.67;;;;;;;22.45;44.15;102274.22;5010234;28;20033;-83
2023/06/07 08:23:05;;;;;;;8.52;2.83;;;;;;;22.55;44.06;102279.38;4972655;28;20057;-85
2023/06/07 08:25:32;;;;;;;7.22;2.85;;;;;;;22.71;44.09;102305.13;4986970;28;20037;-84
2023/06/07 08:28:07;;;;;;;5.40;2.90;;;;;;;22.63;43.89;102284.72;4976941;28;20052;-84
2023/06/07 08:30:36;;;;;;;4.07;2.67;;;;;;;22.77;43.90;102299.16;4972487;28;20116;-83
2023/06/07 08:33:06;;;;;;;7.00;3.35;;;;;;;22.80;43.96;102310.31;4957137;28;20318;-84
2023/06/07 08:35:40;;;;;;;6.43;2.83;;;;;;;22.80;44.01;102307.66;4977174;28;20037;-83
2023/06/07 08:38:11;;;;;;;7.28;2.78;;;;;;;22.79;44.17;102307.78;4973775;28;20463;-83
2023/06/07 08:40:38;;;;;;;4.32;2.47;;;;;;;22.79;43.69;102295.34;4987880;28;20052;-84
2023/06/07 08:43:25;;;;;;;6.18;2.72;;;;;;;22.67;43.37;102279.91;4987714;28;20078;-83
2023/06/07 08:45:51;;;;;;;5.05;2.58;;;;;;;22.79;43.75;102295.34;5014051;28;20125;-82
2023/06/07 08:48:20;;;;;;;6.90;3.10;;;;;;;22.86;43.63;102298.22;4996827;28;20046;-83
2023/06/07 08:50:50;;;;;;;8.98;2.80;;;;;;;22.87;43.12;102299.88;4968644;28;20038;-83
2023/06/07 08:53:47;;;;;;;8.00;3.00;;;;;;;22.83;43.00;102296.72;4985841;28;20030;-83
2023/06/07 08:56:13;;;;;;;8.40;3.50;;;;;;;22.65;42.62;102272.09;4987807;28;20468;-84
2023/06/07 08:58:43;;;;;;;6.93;3.20;;;;;;;22.85;43.26;102308.00;4947853;28;20073;-80
2023/06/07 09:01:11;;;;;;;9.07;3.28;;;;;;;22.86;43.03;102303.53;4982398;28;20106;-83
2023/06/07 09:03:38;;;;;;;7.07;3.03;;;;;;;22.79;43.10;102291.84;4972713;28;20053;-84
2023/06/07 09:06:03;;;;;;;10.38;3.30;;;;;;;22.64;43.04;102256.34;4968696;28;20053;-83
2023/06/07 09:08:30;;;;;;;6.25;3.38;;;;;;;22.85;43.27;102294.72;4954873;28;20905;-83
2023/06/07 09:10:56;;;;;;;6.82;3.40;;;;;;;22.53;43.10;102238.88;5002436;28;20042;-84
2023/06/07 09:13:22;;;;;;;7.85;3.78;;;;;;;22.86;42.87;102290.25;4984144;28;20044;-83
2023/06/07 09:15:54;;;;;;;5.00;2.85;;;;;;;22.70;43.13;102267.13;4986712;28;20045;-83
2023/06/07 09:18:19;;;;;;;6.70;3.08;;;;;;;22.85;43.58;102292.06;5001064;28;20034;-82
2023/06/07 09:20:45;;;;;;;8.52;3.80;;;;;;;;;;5002050;28;20035;-84
2023/06/07 09:23:14;;;;;;;4.95;3.15;;;;;;;22.90;43.31;102294.22;4983885;28;20042;-83
2023/06/07 09:25:44;;;;;;;6.63;3.17;;;;;;;22.78;43.44;102277.75;4980879;28;20042;-83
2023/06/07 09:28:14;;;;;;;4.65;2.72;;;;;;;22.88;43.47;102294.41;4967766;28;20038;-83
2023/06/07 09:30:54;;;;;;;;;;;;;;;22.91;43.46;102296.72;4987518;28;21147;-83
2023/06/07 09:33:30;;;;;;;8.02;3.38;;;;;;;22.84;43.47;102286.94;4999890;28;19994;-84
2023/06/07 09:36:17;;;;;;;5.40;2.60;;;;;;;22.91;43.58;102301.19;4984054;28;20057;-82
2023/06/07 09:38:43;;;;;;;5.35;2.72;;;;;;;22.84;43.43;102287.75;4999399;28;20060;-83
2023/06/07 09:41:13;;;;;;;6.45;3.05;;;;;;;22.80;43.55;102273.13;5002145;28;20065;-84
2023/06/07 09:43:51;;;;;;;8.23;3.35;;;;;;;22.91;43.45;102295.88;4998548;28;20065;-82
2023/06/07 09:46:18;;;;;;;6.53;2.92;;;;;;;22.86;43.45;102282.28;4970718;28;20030;-86
2023/06/07 09:48:45;;;;;;;4.90;2.72;;;;;;;22.91;43.37;102293.22;4984201;28;20376;-84
2023/06/07 09:51:11;;;;;;;5.32;3.15;;;;;;;22.84;43.60;102285.09;4966386;28;20038;-84
2023/06/07 09:53:54;;;;;;;4.78;3.20;;;;;;;22.88;43.58;102301.53;4997759;28;20034;-85
2023/06/07 09:56:24;;;;;;;5.53;3.08;;;;;;;22.89;43.58;102288.09;4972113;28;20038;-86
2023/06/07 09:59:13;;;;;;;5.15;2.80;;;;;;;22.83;43.48;102282.63;4999217;28;20077;-84
2023/06/07 10:01:46;;;;;;;4.07;2.90;;;;;;;22.80;43.30;102281.09;4999514;28;20050;-84
2023/06/07 10:04:13;;;;;;;6.55;3.15;;;;;;;22.73;43.46;102273.94;5003348;28;20057;-82
2023/06/07 10:06:43;;;;;;;4.85;2.90;;;;;;;22.85;43.40;102285.94;4985755;28;20038;-84
2023/06/07 10:09:10;;;;;;;6.40;2.78;;;;;;;22.85;43.68;102297.38;4999360;28;20053;-83
2023/06/07 10:11:37;;;;;;;6.85;2.80;;;;;;;22.78;43.55;102274.25;5000501;28;20056;-81
2023/06/07 10:14:10;;;;;;;5.22;3.08;;;;;;;22.74;43.40;102271.09;5020901;28;20096;-84
2023/06/07 10:16:42;;;;;;;4.50;3.13;;;;;;;22.79;43.52;102274.09;5024755;28;20040;-84
2023/06/07 10:19:20;;;;;;;6.47;3.03;;;;;;;22.79;43.46;102273.25;5005311;28;20040;-83
2023/06/07 10:21:50;;;;;;;7.93;3.30;;;;;;;22.83;43.31;102280.78;5020427;28;20036;-85
2023/06/07 10:24:59;;;;;;;5.38;3.03;;;;;;;22.84;43.48;102279.78;5007137;28;20102;-84
2023/06/07 10:27:28;;;;;;;4.65;2.72;;;;;;;22.76;43.67;102270.94;4998622;28;20052;-85
2023/06/07 10:30:06;;;;;;;6.35;2.70;;;;;;;22.79;43.49;102278.56;5022790;28;20030;-85
2023/06/07 10:32:34;;;;;;;5.78;3.00;;;;;;;;;;5019807;28;20057;-83
2023/06/07 10:35:01;;;;;;;5.72;3.13;;;;;;;22.69;43.40;102256.66;5005577;28;20065;-84
2023/06/07 10:37:30;;;;;;;6.93;3.17;;;;;;;22.81;43.57;102280.09;4993071;28;20038;-85
2023/06/07 10:39:57;;;;;;;8.30;3.30;;;;;;;22.68;43.58;102260.31;5003446;28;20045;-86
2023/06/07 10:42:24;;;;;;;6.30;3.33;;;;;;;22.41;43.55;102219.78;4989164;28;20053;-83
2023/06/07 10:44:51;;;;;;;7.05;3.40;;;;;;;22.80;43.72;102274.91;5006557;28;20038;-84
2023/06/07 10:47:29;;;;;;;5.07;3.10;;;;;;;22.77;43.83;102264.63;4975783;28;20101;-84
2023/06/07 10:49:58;;;;;;;5.80;3.13;;;;;;;22.78;43.52;102275.09;5005139;28;20045;-87
2023/06/07 10:52:29;;;;;;;5.47;3.03;;;;;;;22.71;43.56;102257.31;5005370;28;21237;-87
2023/06/07 10:54:56;;;;;;;3.85;3.00;;;;;;;22.56;43.41;102241.22;4973926;28;20037;-83
2023/06/07 10:57:52;;;;;;;7.55;3.70;;;;;;;22.52;43.73;102227.44;4979313;28;20045;-85
2023/06/07 11:00:38;;;;;;;4.88;3.35;;;;;;;22.64;43.45;102240.41;5011824;28;20530;-84
2023/06/07 11:03:09;;;;;;;5.10;3.22;;;;;;;22.75;43.51;102266.63;4989963;28;20042;-86
2023/06/07 11:05:53;;;;;;;5.78;3.30;;;;;;;22.77;43.43;102265.47;5011492;28;20041;-85
2023/06/07 11:08:45;;;;;;;6.50;2.97;;;;;;;22.73;43.41;102255.34;5001776;28;20058;-85
2023/06/07 11:11:58;;;;;;;5.57;3.15;;;;;;;22.76;43.55;102265.63;4983426;28;20037;-85
2023/06/07 11:14:24;;;;;;;4.70;3.20;;;;;;;22.57;43.43;102237.56;5006991;28;20081;-86
2023/06/07 11:16:50;;;;;;;6.82;2.97;;;;;;;22.75;43.66;102270.09;4989333;28;20042;-86
2023/06/07 11:19:36;;;;;;;6.47;3.60;;;;;;;22.54;43.52;102236.06;4987905;28;20049;-86
2023/06/07 11:22:07;;;;;;;5.93;3.55;;;;;;;22.69;43.46;102262.81;4985632;28;20046;-84
2023/06/07 11:25:14;;;;;;;7.18;3.72;;;;;;;22.69;43.76;102254.00;4975806;28;20088;-86
2023/06/07 11:27:42;;;;;;;6.55;3.45;;;;;;;22.77;43.88;102261.97;4999894;28;20118;-89
2023/06/07 11:30:29;;;;;;;5.78;3.60;;;;;;;22.76;43.88;102255.00;5017936;28;20086;-85
2023/06/07 11:33:34;;;;;;;5.70;3.33;;;;;;;22.72;43.84;102257.16;5009059;28;20038;-87
2023/06/07 11:36:18;;;;;;;7.40;3.28;;;;;;;22.71;43.77;102247.53;4997722;28;20045;-90
2023/06/07 11:39:27;;;;;;;3.97;3.13;;;;;;;22.56;43.82;102220.78;4997078;28;20046;-88
2023/06/07 11:42:33;;;;;;;6.95;3.55;;;;;;;22.68;43.80;102237.25;5007974;28;20034;-89
2023/06/07 11:45:19;;;;;;;6.05;3.13;;;;;;;22.56;43.78;102225.28;5024562;28;20037;-88
2023/06/07 11:48:29;;;;;;;5.45;3.53;;;;;;;22.73;43.92;102248.19;5015435;28;20268;-88
2023/06/07 11:50:57;;;;;;;11.30;3.55;;;;;;;22.56;43.97;102223.44;5012192;28;20042;-87
2023/06/07 11:54:05;;;;;;;7.65;3.35;;;;;;;22.75;43.75;102251.50;4985907;28;20030;-89
2023/06/07 11:57:33;;;;;;;7.70;3.03;;;;;;;22.73;43.85;102248.19;5004319;28;20038;-90
2023/06/07 12:00:40;;;;;;;6.82;2.78;;;;;;;22.75;43.75;102248.84;5022006;28;20038;-91
2023/06/07 12:03:16;;;;;;;6.65;3.67;;;;;;;22.62;43.74;102232.56;5018387;28;20038;-90
2023/06/07 12:05:59;;;;;;;5.53;3.30;;;;;;;22.70;44.15;102240.56;4979846;28;20030;-89
2023/06/07 12:09:00;;;;;;;10.23;3.63;;;;;;;22.62;44.04;102229.91;5002168;28;20113;-89
2023/06/07 12:11:47;;;;;;;5.57;3.20;;;;;;;22.69;43.80;102232.75;5025748;28;20050;-91
2023/06/07 12:14:33;;;;;;;5.85;3.40;;;;;;;22.56;44.20;102227.94;5018697;28;20053;-92
2023/06/07 12:17:23;;;;;;;6.50;3.60;;;;;;;22.71;44.08;102238.75;5010616;28;20106;-91
2023/06/07 12:19:53;;;;;;;6.63;3.40;;;;;;;22.51;43.93;102203.72;5012370;28;20042;-91
2023/06/07 12:22:41;;;;;;;6.22;3.33;;;;;;;22.68;44.02;102217.84;5002446;28;20041;-89
2023/06/07 12:25:30;;;;;;;4.88;3.20;;;;;;;22.66;43.89;102222.47;5032289;28;20038;-92
2023/06/07 12:28:06;;;;;;;6.05;3.10;;;;;;;22.66;44.19;102225.13;5013212;28;20030;-93
2023/06/07 12:31:14;;;;;;;6.03;3.28;;;;;;;22.75;44.10;102243.56;5021787;28;20059;-91
2023/06/07 12:34:26;;;;;;;6.37;3.07;;;;;;;22.59;43.87;102216.97;5035697;28;20041;-91
2023/06/07 12:37:12;;;;;;;6.65;3.30;;;;;;;22.59;43.79;102212.50;5024045;28;20045;-91
2023/06/07 12:40:01;;;;;;;7.35;3.40;;;;;;;22.70;44.00;102237.91;5019589;28;20033;-91